Windham, New Hampshire
Current Conditions -  °F | °C
As of 11:54 PM on Friday 28 Nov 2014 (Local Time) from KLWM Reporting Station
Clear Clear  
Wind Chill: 15°   Ceiling: Unl
Heat Index: 21°   Visibility: 10mi
Dew Point: 14°   Wind: 5mph
Humidity: 74%   Direction: 280°W
Pressure: 30.23"   Gusts: NA
Location:  42.8°N, 71.3°W
Report Text: KLWM 290454Z 28004KT 10SM CLR M06/M10 A3023 RMK AO2 SLP237 T10611100 400001067
Loading
Personal Weather Stations






























Interactive Weather Map New forecast layout! Learn more

10-Day Weather Forecast

Advertisements
Track Severe Weather on mobile